Time;durP1;ratioP1;P1;durP2;ratioP2;P2;SDS_P1;SDS_P2;PMS_P1;PMS_P2;Temp;Humidity;BMP_temperature;BMP_pressure;BME280_temperature;BME280_humidity;BME280_pressure;Samples;Min_cycle;Max_cycle;Signal;HPM_P1;HPM_P2
2022/06/30 00:01:16;;;;;;;;;;;;;;;;;;5036737;28;19923;-84
2022/06/30 00:03:42;;;;;;;;;;;;;;;;;;5036400;28;19917;-83
2022/06/30 00:06:07;;;;;;;;;;;;;;;;;;5036204;28;20007;-84
2022/06/30 00:08:33;;;;;;;;;;;;;;;;;;5047969;28;20315;-85
2022/06/30 00:11:06;;;;;;;;;;;;;;;;;;5038792;28;19917;-84
2022/06/30 00:13:32;;;;;;;;;;;;;;;;;;5034957;28;20407;-85
2022/06/30 00:15:57;;;;;;;;;;;;;;;;;;5036457;28;20011;-83
2022/06/30 00:18:23;;;;;;;;;;;;;;;;;;5034994;28;19928;-84
2022/06/30 00:20:48;;;;;;;;;;;;;;;;;;5035918;28;19917;-84
2022/06/30 00:23:13;;;;;;;;;;;;;;;;;;5036027;28;19924;-83
2022/06/30 00:25:38;;;;;;;;;;;;;;;;;;5036043;28;19920;-83
2022/06/30 00:28:04;;;;;;;;;;;;;;;;;;5042519;28;19923;-84
2022/06/30 00:30:29;;;;;;;;;;;;;;;;;;5041973;28;19917;-83
2022/06/30 00:32:55;;;;;;;;;;;;;;;;;;5035979;28;20000;-84
2022/06/30 00:35:20;;;;;;;;;;;;;;;;;;5035125;28;20420;-83
2022/06/30 00:37:45;;;;;;;;;;;;;;;;;;5035757;28;19975;-82
2022/06/30 00:40:11;;;;;;;;;;;;;;;;;;5034549;28;20243;-84
2022/06/30 00:42:36;;;;;;;;;;;;;;;;;;5034223;28;19917;-84
2022/06/30 00:45:02;;;;;;;;;;;;;;;;;;5034419;28;19917;-84
2022/06/30 00:47:27;;;;;;;;;;;;;;;;;;5035712;28;19928;-85
2022/06/30 00:49:52;;;;;;;;;;;;;;;;;;5049279;28;19921;-84
2022/06/30 00:52:18;;;;;;;;;;;;;;;;;;5035343;28;20059;-85
2022/06/30 00:54:43;;;;;;;;;;;;;;;;;;5035404;28;19952;-84
2022/06/30 00:57:08;;;;;;;;;;;;;;;;;;5035438;28;20371;-83
2022/06/30 00:59:34;;;;;;;;;;;;;;;;;;5033951;28;19917;-84
2022/06/30 01:01:59;;;;;;;;;;;;;;;;;;5034193;28;19917;-85
2022/06/30 01:04:24;;;;;;;;;;;;;;;;;;5034907;28;19918;-84
2022/06/30 01:06:50;;;;;;;;;;;;;;;;;;5017618;28;19975;-84
2022/06/30 01:12:41;;;;;;;;;;;;;;;;;;5031293;28;19944;-85
2022/06/30 01:14:44;;;;;;;;;;;;;;;;;;5034940;28;20353;-85
2022/06/30 01:17:10;;;;;;;;;;;;;;;;;;5034594;28;20013;-85
2022/06/30 01:19:35;;;;;;;;;;;;;;;;;;5034744;28;19943;-85
2022/06/30 01:22:03;;;;;;;;;;;;;;;;;;5034974;28;19917;-84
2022/06/30 01:24:29;;;;;;;;;;;;;;;;;;5034952;28;19917;-84
2022/06/30 01:26:55;;;;;;;;;;;;;;;;;;5033572;28;19919;-84
2022/06/30 01:29:20;;;;;;;;;;;;;;;;;;5044506;28;19921;-84
2022/06/30 01:31:46;;;;;;;;;;;;;;;;;;5039487;28;19983;-84
2022/06/30 01:34:11;;;;;;;;;;;;;;;;;;5033272;28;20345;-83
2022/06/30 01:36:36;;;;;;;;;;;;;;;;;;5034849;28;20315;-84
2022/06/30 01:39:02;;;;;;;;;;;;;;;;;;5035105;28;19918;-83
2022/06/30 01:41:27;;;;;;;;;;;;;;;;;;5034560;28;19917;-83
2022/06/30 01:43:52;;;;;;;;;;;;;;;;;;5034419;28;19917;-83
2022/06/30 01:46:21;;;;;;;;;;;;;;;;;;5034498;28;19924;-84
2022/06/30 01:48:46;;;;;;;;;;;;;;;;;;5037600;28;20298;-84
2022/06/30 01:51:11;;;;;;;;;;;;;;;;;;5045654;28;20036;-84
2022/06/30 01:53:37;;;;;;;;;;;;;;;;;;5034630;28;19917;-83
2022/06/30 01:56:02;;;;;;;;;;;;;;;;;;5034215;28;19917;-84
2022/06/30 01:58:27;;;;;;;;;;;;;;;;;;5034676;28;19917;-85
2022/06/30 02:00:53;;;;;;;;;;;;;;;;;;5033025;28;20024;-84
2022/06/30 02:03:18;;;;;;;;;;;;;;;;;;5034210;28;19924;-84
2022/06/30 02:05:43;;;;;;;;;;;;;;;;;;5034256;28;19917;-84
2022/06/30 02:08:09;;;;;;;;;;;;;;;;;;5034806;28;20274;-83
2022/06/30 02:10:34;;;;;;;;;;;;;;;;;;5030273;28;20317;-83
2022/06/30 02:12:59;;;;;;;;;;;;;;;;;;5038587;28;20305;-84
2022/06/30 02:15:32;;;;;;;;;;;;;;;;;;5038205;28;19917;-84
2022/06/30 02:17:57;;;;;;;;;;;;;;;;;;5038800;28;19917;-84
2022/06/30 02:20:26;;;;;;;;;;;;;;;;;;5055258;28;19941;-82
2022/06/30 02:22:55;;;;;;;;;;;;;;;;;;5050231;28;20250;-82
2022/06/30 02:25:20;;;;;;;;;;;;;;;;;;5045444;28;19956;-83
2022/06/30 02:27:46;;;;;;;;;;;;;;;;;;5038065;28;20247;-83
2022/06/30 02:30:11;;;;;;;;;;;;;;;;;;5045066;28;19921;-83
2022/06/30 02:32:36;;;;;;;;;;;;;;;;;;5043238;28;19921;-84
2022/06/30 02:35:02;;;;;;;;;;;;;;;;;;5038124;28;20331;-84
2022/06/30 02:37:27;;;;;;;;;;;;;;;;;;5038083;28;19922;-84
2022/06/30 02:39:52;;;;;;;;;;;;;;;;;;5038077;28;20263;-86
2022/06/30 02:42:18;;;;;;;;;;;;;;;;;;5038051;28;20003;-84
2022/06/30 02:44:43;;;;;;;;;;;;;;;;;;5037931;28;20250;-84
2022/06/30 02:47:09;;;;;;;;;;;;;;;;;;5037637;28;20259;-84
2022/06/30 02:49:36;;;;;;;;;;;;;;;;;;5038254;28;20315;-84
2022/06/30 02:52:01;;;;;;;;;;;;;;;;;;5052760;28;19920;-84
2022/06/30 02:54:26;;;;;;;;;;;;;;;;;;5038346;28;19951;-84
2022/06/30 02:56:52;;;;;;;;;;;;;;;;;;5037800;28;19924;-84
2022/06/30 02:59:17;;;;;;;;;;;;;;;;;;5037442;28;19924;-84
2022/06/30 03:01:42;;;;;;;;;;;;;;;;;;5037712;28;19917;-85
2022/06/30 03:04:08;;;;;;;;;;;;;;;;;;5037731;28;20266;-83
2022/06/30 03:06:33;;;;;;;;;;;;;;;;;;5037598;28;20258;-83
2022/06/30 03:08:59;;;;;;;;;;;;;;;;;;5036153;28;19924;-84
2022/06/30 03:11:24;;;;;;;;;;;;;;;;;;5047789;28;20369;-84
2022/06/30 03:13:49;;;;;;;;;;;;;;;;;;5039053;28;19921;-84
2022/06/30 03:16:14;;;;;;;;;;;;;;;;;;5036955;28;19967;-84
2022/06/30 03:18:40;;;;;;;;;;;;;;;;;;5037721;28;19917;-84
2022/06/30 03:21:06;;;;;;;;;;;;;;;;;;5035891;28;20013;-84
2022/06/30 03:23:31;;;;;;;;;;;;;;;;;;5037229;28;19917;-84
2022/06/30 03:25:56;;;;;;;;;;;;;;;;;;5035877;28;19924;-84
2022/06/30 03:28:21;;;;;;;;;;;;;;;;;;5036853;28;19913;-85
2022/06/30 03:30:47;;;;;;;;;;;;;;;;;;5041742;28;19923;-85
2022/06/30 03:33:13;;;;;;;;;;;;;;;;;;5047192;28;19917;-84
2022/06/30 03:35:38;;;;;;;;;;;;;;;;;;5037158;28;19921;-84
2022/06/30 03:38:04;;;;;;;;;;;;;;;;;;5035493;28;19928;-84
2022/06/30 03:40:30;;;;;;;;;;;;;;;;;;5036653;28;20309;-84
2022/06/30 03:42:55;;;;;;;;;;;;;;;;;;5035554;28;19917;-85
2022/06/30 03:45:20;;;;;;;;;;;;;;;;;;5037210;28;20311;-84
2022/06/30 03:47:46;;;;;;;;;;;;;;;;;;5035269;28;19949;-84
2022/06/30 03:50:11;;;;;;;;;;;;;;;;;;5036527;28;19929;-84
2022/06/30 03:52:37;;;;;;;;;;;;;;;;;;5050438;28;19931;-83
2022/06/30 03:55:03;;;;;;;;;;;;;;;;;;5037595;28;19991;-83
2022/06/30 03:57:28;;;;;;;;;;;;;;;;;;5036333;28;19917;-84
2022/06/30 03:59:53;;;;;;;;;;;;;;;;;;5036339;28;19917;-84
2022/06/30 04:02:18;;;;;;;;;;;;;;;;;;5036557;28;19917;-85
2022/06/30 04:04:44;;;;;;;;;;;;;;;;;;5036115;28;19927;-86
2022/06/30 04:07:09;;;;;;;;;;;;;;;;;;5036430;28;19919;-85
2022/06/30 04:09:34;;;;;;;;;;;;;;;;;;5036465;28;19917;-83
2022/06/30 04:12:00;;;;;;;;;;;;;;;;;;5039999;28;19913;-83
2022/06/30 04:14:25;;;;;;;;;;;;;;;;;;5040465;28;19921;-83
2022/06/30 04:16:51;;;;;;;;;;;;;;;;;;5035929;28;20258;-82
2022/06/30 04:19:16;;;;;;;;;;;;;;;;;;5036223;28;19959;-81
2022/06/30 04:21:42;;;;;;;;;;;;;;;;;;5035828;28;20267;-82
2022/06/30 04:24:07;;;;;;;;;;;;;;;;;;5034850;28;20319;-82
2022/06/30 04:26:33;;;;;;;;;;;;;;;;;;5035889;28;19948;-82
2022/06/30 04:28:58;;;;;;;;;;;;;;;;;;5035345;28;19924;-82
2022/06/30 04:34:10;;;;;;;;;;;;;;;;;;5040219;28;19924;-82
2022/06/30 04:36:35;;;;;;;;;;;;;;;;;;5036542;28;19917;-81
2022/06/30 04:39:01;;;;;;;;;;;;;;;;;;5037380;28;19928;-82
2022/06/30 04:41:27;;;;;;;;;;;;;;;;;;5035292;28;19967;-84
2022/06/30 04:43:55;;;;;;;;;;;;;;;;;;5035933;28;19917;-81
2022/06/30 04:46:24;;;;;;;;;;;;;;;;;;5035080;28;20007;-83
2022/06/30 04:48:49;;;;;;;;;;;;;;;;;;5036675;28;19960;-81
2022/06/30 04:51:39;;;;;;;;;;;;;;;;;;5037965;28;19956;-82
2022/06/30 04:54:07;;;;;;;;;;;;;;;;;;5046380;28;19917;-81
2022/06/30 04:56:33;;;;;;;;;;;;;;;;;;5041560;28;20009;-82
2022/06/30 04:59:01;;;;;;;;;;;;;;;;;;5037806;28;19956;-83
2022/06/30 05:01:37;;;;;;;;;;;;;;;;;;;;;
2022/06/30 05:15:04;;;;;;;;;;;;;;;;;;5060445;22;19992;-82
2022/06/30 05:17:35;;;;;;;;;;;;;;;;;;5007407;28;20281;-83
2022/06/30 05:20:39;;;;;;;;;;;;;;;;;;;;;
2022/06/30 05:26:30;;;;;;;;;;;;;;;;;;4966920;29;19981;-83
2022/06/30 05:29:29;;;;;;;;;;;;;;;;;;4957837;28;19925;-85
2022/06/30 05:31:54;;;;;;;;;;;;;;;;;;4918392;29;20138;-81
2022/06/30 05:34:47;;;;;;;;;;;;;;;;;;4919350;29;19954;-82
2022/06/30 05:40:12;;;;;;;;;;;;;;;;;;4937623;29;19953;-81
2022/06/30 05:45:26;;;;;;;;;;;;;;;;;;5000621;28;19921;-81
2022/06/30 05:47:52;;;;;;;;;;;;;;;;;;5025975;28;19929;-80
2022/06/30 05:50:18;;;;;;;;;;;;;;;;;;5019281;28;19917;-81
2022/06/30 05:53:02;;;;;;;;;;;;;;;;;;4997511;28;20331;-82
2022/06/30 06:04:53;;;;;;;;;;;;;;;;;;4984642;23;19972;-82
2022/06/30 06:07:18;;;;;;;;;;;;;;;;;;5014367;28;19921;-81
2022/06/30 06:09:46;;;;;;;;;;;;;;;;;;5019204;28;19988;-83
2022/06/30 06:12:21;;;;;;;;;;;;;;;;;;5042658;28;19917;-83
2022/06/30 06:14:59;;;;;;;;;;;;;;;;;;5033016;28;20015;-84
2022/06/30 06:17:25;;;;;;;;;;;;;;;;;;5014875;28;19921;-85
2022/06/30 06:22:30;;;;;;;;;;;;;;;;;;5060640;22;19974;-83
2022/06/30 06:24:58;;;;;;;;;;;;;;;;;;5035765;28;20002;-82
2022/06/30 06:27:26;;;;;;;;;;;;;;;;;;5018666;28;19988;-84
2022/06/30 06:30:29;;;;;;;;;;;;;;;;;;5038113;28;19917;-81
2022/06/30 06:42:03;;;;;;;;;;;;;;;;;;5308009;22;20390;-82
2022/06/30 06:44:29;;;;;;;;;;;;;;;;;;5001568;28;19921;-82
2022/06/30 06:46:54;;;;;;;;;;;;;;;;;;5001455;28;19964;-83
2022/06/30 06:49:19;;;;;;;;;;;;;;;;;;5031483;28;20243;-80
2022/06/30 06:51:45;;;;;;;;;;;;;;;;;;5032600;28;19920;-82
2022/06/30 06:54:10;;;;;;;;;;;;;;;;;;5032656;28;19921;-84
2022/06/30 06:56:36;;;;;;;;;;;;;;;;;;5008197;28;19936;-84
2022/06/30 06:59:13;;;;;;;;;;;;;;;;;;5028085;28;19932;-85
2022/06/30 07:02:03;;;;;;;;;;;;;;;;;;4999863;28;19925;-84
2022/06/30 07:04:32;;;;;;;;;;;;;;;;;;5028123;28;19921;-83
2022/06/30 07:06:57;;;;;;;;;;;;;;;;;;5016147;28;19945;-85
2022/06/30 07:09:38;;;;;;;;;;;;;;;;;;5016365;28;19987;-85
2022/06/30 07:28:19;;;;;;;;;;;;;;;;;;5060745;28;20069;-83
2022/06/30 07:30:20;;;;;;;;;;;;;;;;;;5013056;28;20028;-84
2022/06/30 07:41:22;;;;;;;;;;;;;;;;;;5187847;22;19953;-80
2022/06/30 07:43:48;;;;;;;;;;;;;;;;;;5055294;28;20368;-80
2022/06/30 07:46:14;;;;;;;;;;;;;;;;;;5053771;28;19975;-79
2022/06/30 07:48:39;;;;;;;;;;;;;;;;;;5035330;28;19939;-80
2022/06/30 07:51:05;;;;;;;;;;;;;;;;;;5053960;28;19917;-80
2022/06/30 07:53:30;;;;;;;;;;;;;;;;;;5054657;28;19943;-80
2022/06/30 07:55:55;;;;;;;;;;;;;;;;;;5036414;28;20003;-80
2022/06/30 07:58:21;;;;;;;;;;;;;;;;;;5064046;28;19921;-79
2022/06/30 08:00:46;;;;;;;;;;;;;;;;;;5055042;28;19921;-80
2022/06/30 08:03:12;;;;;;;;;;;;;;;;;;5053510;28;20307;-80
2022/06/30 08:05:37;;;;;;;;;;;;;;;;;;5020912;28;19917;-81
2022/06/30 08:08:02;;;;;;;;;;;;;;;;;;5053215;28;19921;-79
2022/06/30 08:10:28;;;;;;;;;;;;;;;;;;5036384;28;19924;-80
2022/06/30 08:12:53;;;;;;;;;;;;;;;;;;5054860;28;19917;-78
2022/06/30 08:15:18;;;;;;;;;;;;;;;;;;5056550;28;19974;-79
2022/06/30 08:17:44;;;;;;;;;;;;;;;;;;5058652;28;19928;-79
2022/06/30 08:20:09;;;;;;;;;;;;;;;;;;5064179;28;20015;-79
2022/06/30 08:22:34;;;;;;;;;;;;;;;;;;5057016;28;20047;-79
2022/06/30 08:25:00;;;;;;;;;;;;;;;;;;5056506;28;19966;-80
2022/06/30 08:27:25;;;;;;;;;;;;;;;;;;5056049;28;19923;-80
2022/06/30 08:29:51;;;;;;;;;;;;;;;;;;5055868;28;19917;-80
2022/06/30 08:32:16;;;;;;;;;;;;;;;;;;5056485;28;20299;-81
2022/06/30 08:34:41;;;;;;;;;;;;;;;;;;5056483;28;20326;-80
2022/06/30 08:37:08;;;;;;;;;;;;;;;;;;5057522;28;19972;-82
2022/06/30 08:42:18;;;;;;;;;;;;;;;;;;5043540;28;20011;-80
2022/06/30 08:44:43;;;;;;;;;;;;;;;;;;5038784;28;19999;-82
2022/06/30 08:47:09;;;;;;;;;;;;;;;;;;5038344;28;19979;-80
2022/06/30 08:49:34;;;;;;;;;;;;;;;;;;5056406;28;19913;-81
2022/06/30 08:52:00;;;;;;;;;;;;;;;;;;5038383;28;19974;-80
2022/06/30 08:54:26;;;;;;;;;;;;;;;;;;5056299;28;19920;-80
2022/06/30 08:56:52;;;;;;;;;;;;;;;;;;5056518;28;19924;-80
2022/06/30 08:59:19;;;;;;;;;;;;;;;;;;5042021;28;19923;-80
2022/06/30 09:01:44;;;;;;;;;;;;;;;;;;5056741;28;19913;-80
2022/06/30 09:04:10;;;;;;;;;;;;;;;;;;5056209;28;19917;-78
2022/06/30 09:06:35;;;;;;;;;;;;;;;;;;5037534;28;19916;-79
2022/06/30 09:09:01;;;;;;;;;;;;;;;;;;5055629;28;19964;-81
2022/06/30 09:11:45;;;;;;;;;;;;;;;;;;5056622;28;19963;-79
2022/06/30 09:14:10;;;;;;;;;;;;;;;;;;5056479;28;19923;-79
2022/06/30 09:16:37;;;;;;;;;;;;;;;;;;5056869;28;20393;-80
2022/06/30 09:19:05;;;;;;;;;;;;;;;;;;5025505;28;19917;-80
2022/06/30 09:21:32;;;;;;;;;;;;;;;;;;5041825;28;19916;-78
2022/06/30 09:23:57;;;;;;;;;;;;;;;;;;5056210;28;19921;-80
2022/06/30 09:26:23;;;;;;;;;;;;;;;;;;5055267;28;20257;-80
2022/06/30 09:28:50;;;;;;;;;;;;;;;;;;5055637;28;19924;-79
2022/06/30 09:31:29;;;;;;;;;;;;;;;;;;5055568;28;19917;-80
2022/06/30 09:33:54;;;;;;;;;;;;;;;;;;5038516;28;19917;-86
2022/06/30 09:36:22;;;;;;;;;;;;;;;;;;5040522;28;19923;-86
2022/06/30 09:39:07;;;;;;;;;;;;;;;;;;5061522;28;19917;-85
2022/06/30 09:41:33;;;;;;;;;;;;;;;;;;5066866;28;19921;-84
2022/06/30 09:44:01;;;;;;;;;;;;;;;;;;5059120;28;19930;-87
2022/06/30 09:46:26;;;;;;;;;;;;;;;;;;5057930;28;20282;-85
2022/06/30 09:48:54;;;;;;;;;;;;;;;;;;5059333;28;20390;-88
2022/06/30 09:51:19;;;;;;;;;;;;;;;;;;5055447;28;19917;-86
2022/06/30 09:54:04;;;;;;;;;;;;;;;;;;5039954;28;19939;-85
2022/06/30 09:56:29;;;;;;;;;;;;;;;;;;5057935;28;19944;-86
2022/06/30 09:58:54;;;;;;;;;;;;;;;;;;5058923;28;19924;-84
2022/06/30 10:01:20;;;;;;;;;;;;;;;;;;5065260;28;19924;-85
2022/06/30 10:03:59;;;;;;;;;;;;;;;;;;5057416;28;19917;-87
2022/06/30 10:06:24;;;;;;;;;;;;;;;;;;5039810;28;20020;-86
2022/06/30 10:08:49;;;;;;;;;;;;;;;;;;5056745;28;19959;-86
2022/06/30 10:11:15;;;;;;;;;;;;;;;;;;5022382;28;19960;-85
2022/06/30 10:13:40;;;;;;;;;;;;;;;;;;5057357;28;19939;-85
2022/06/30 10:16:06;;;;;;;;;;;;;;;;;;5057309;28;19924;-85
2022/06/30 10:18:32;;;;;;;;;;;;;;;;;;5057022;28;20592;-86
2022/06/30 10:20:58;;;;;;;;;;;;;;;;;;5068590;28;19916;-85
2022/06/30 10:23:23;;;;;;;;;;;;;;;;;;5060931;28;19916;-87
2022/06/30 10:25:49;;;;;;;;;;;;;;;;;;5057084;28;20011;-86
2022/06/30 10:28:18;;;;;;;;;;;;;;;;;;5056342;28;19971;-84
2022/06/30 10:30:50;;;;;;;;;;;;;;;;;;5057816;28;20333;-87
2022/06/30 10:33:19;;;;;;;;;;;;;;;;;;5061985;28;19952;-86
2022/06/30 10:35:45;;;;;;;;;;;;;;;;;;5059156;28;19919;-87
2022/06/30 10:38:29;;;;;;;;;;;;;;;;;;5060905;28;19923;-87
2022/06/30 10:40:54;;;;;;;;;;;;;;;;;;5069241;28;19921;-85
2022/06/30 10:43:20;;;;;;;;;;;;;;;;;;5052535;28;20027;-85
2022/06/30 10:45:54;;;;;;;;;;;;;;;;;;5059276;28;19924;-86
2022/06/30 10:48:20;;;;;;;;;;;;;;;;;;5058773;28;20318;-84
2022/06/30 10:50:45;;;;;;;;;;;;;;;;;;5058026;28;19921;-85
2022/06/30 10:53:14;;;;;;;;;;;;;;;;;;5058685;28;19952;-88
2022/06/30 10:55:52;;;;;;;;;;;;;;;;;;5040517;28;19939;-84
2022/06/30 10:58:19;;;;;;;;;;;;;;;;;;5057798;28;19956;-84
2022/06/30 11:00:46;;;;;;;;;;;;;;;;;;5063088;28;19952;-85
2022/06/30 11:03:30;;;;;;;;;;;;;;;;;;5038045;28;19956;-87
2022/06/30 11:06:08;;;;;;;;;;;;;;;;;;5057716;28;20266;-89
2022/06/30 11:08:39;;;;;;;;;;;;;;;;;;5059349;28;19916;-83
2022/06/30 11:11:19;;;;;;;;;;;;;;;;;;5041392;28;19917;-85
2022/06/30 11:13:45;;;;;;;;;;;;;;;;;;5057805;28;20016;-86
2022/06/30 11:16:12;;;;;;;;;;;;;;;;;;5040254;28;19948;-86
2022/06/30 11:18:38;;;;;;;;;;;;;;;;;;5040332;28;19917;-85
2022/06/30 11:21:03;;;;;;;;;;;;;;;;;;5058858;28;20270;-86
2022/06/30 11:23:28;;;;;;;;;;;;;;;;;;5071696;28;19921;-86
2022/06/30 11:28:37;;;;;;;;;;;;;;;;;;5058488;28;19924;-87
2022/06/30 11:31:03;;;;;;;;;;;;;;;;;;5040456;28;19913;-85
2022/06/30 11:33:28;;;;;;;;;;;;;;;;;;5057459;28;19917;-86
2022/06/30 11:36:00;;;;;;;;;;;;;;;;;;5040081;28;19912;-88
2022/06/30 11:38:26;;;;;;;;;;;;;;;;;;5057332;28;19917;-87
2022/06/30 11:41:54;;;;;;;;;;;;;;;;;;5057260;28;19924;-87
2022/06/30 11:43:37;;;;;;;;;;;;;;;;;;5071924;28;19925;-86
2022/06/30 11:46:03;;;;;;;;;;;;;;;;;;5057066;28;19917;-87
2022/06/30 11:48:29;;;;;;;;;;;;;;;;;;5057317;28;19917;-88
2022/06/30 11:50:54;;;;;;;;;;;;;;;;;;5057266;28;19917;-88
2022/06/30 11:53:19;;;;;;;;;;;;;;;;;;5057189;28;20235;-87
2022/06/30 11:55:46;;;;;;;;;;;;;;;;;;5057073;28;19917;-87
2022/06/30 11:58:12;;;;;;;;;;;;;;;;;;5039431;28;20335;-87
2022/06/30 12:00:37;;;;;;;;;;;;;;;;;;5041279;28;19924;-87
2022/06/30 12:03:04;;;;;;;;;;;;;;;;;;5056149;28;19968;-85
2022/06/30 12:05:29;;;;;;;;;;;;;;;;;;5065960;28;20350;-86
2022/06/30 12:07:57;;;;;;;;;;;;;;;;;;5056558;28;19916;-87
2022/06/30 12:10:24;;;;;;;;;;;;;;;;;;5039149;28;20342;-85
2022/06/30 12:12:49;;;;;;;;;;;;;;;;;;5056822;28;20265;-86
2022/06/30 12:15:15;;;;;;;;;;;;;;;;;;5056856;28;19928;-89
2022/06/30 12:17:42;;;;;;;;;;;;;;;;;;5056823;28;19951;-87
2022/06/30 12:20:08;;;;;;;;;;;;;;;;;;5056761;28;19917;-86
2022/06/30 12:22:33;;;;;;;;;;;;;;;;;;5056939;28;20250;-84
2022/06/30 12:25:01;;;;;;;;;;;;;;;;;;5050548;28;19928;-87
2022/06/30 12:27:28;;;;;;;;;;;;;;;;;;5041626;28;19924;-86
2022/06/30 12:30:01;;;;;;;;;;;;;;;;;;5038782;28;20349;-84
2022/06/30 12:32:26;;;;;;;;;;;;;;;;;;5056570;28;20315;-88
2022/06/30 12:34:52;;;;;;;;;;;;;;;;;;5038486;28;19924;-86
2022/06/30 12:37:24;;;;;;;;;;;;;;;;;;5022036;28;19920;-86
2022/06/30 12:39:50;;;;;;;;;;;;;;;;;;5055861;28;19959;-86
2022/06/30 12:42:15;;;;;;;;;;;;;;;;;;5038000;28;20346;-86
2022/06/30 12:44:40;;;;;;;;;;;;;;;;;;5067479;28;19921;-86
2022/06/30 12:47:09;;;;;;;;;;;;;;;;;;5065357;28;19944;-86
2022/06/30 12:49:35;;;;;;;;;;;;;;;;;;5055579;28;20321;-86
2022/06/30 12:52:00;;;;;;;;;;;;;;;;;;5056291;28;19924;-87
2022/06/30 12:54:26;;;;;;;;;;;;;;;;;;5055152;28;19952;-86
2022/06/30 12:56:58;;;;;;;;;;;;;;;;;;5055359;28;20875;-87
2022/06/30 12:59:24;;;;;;;;;;;;;;;;;;5037541;28;19951;-85
2022/06/30 13:01:52;;;;;;;;;;;;;;;;;;5055593;28;20302;-84
2022/06/30 13:04:21;;;;;;;;;;;;;;;;;;5057200;28;19917;-84
2022/06/30 13:06:46;;;;;;;;;;;;;;;;;;5066157;28;20230;-84
2022/06/30 13:09:13;;;;;;;;;;;;;;;;;;5037739;28;19923;-86
2022/06/30 13:11:40;;;;;;;;;;;;;;;;;;5055843;28;19916;-85
2022/06/30 13:14:05;;;;;;;;;;;;;;;;;;5038011;28;20003;-87
2022/06/30 13:16:31;;;;;;;;;;;;;;;;;;5037506;28;20318;-85
2022/06/30 13:18:58;;;;;;;;;;;;;;;;;;5021161;28;19923;-85
2022/06/30 13:21:24;;;;;;;;;;;;;;;;;;5054952;28;20343;-85
2022/06/30 13:23:49;;;;;;;;;;;;;;;;;;5055049;28;19927;-87
2022/06/30 13:26:14;;;;;;;;;;;;;;;;;;5065588;28;19908;-87
2022/06/30 13:28:40;;;;;;;;;;;;;;;;;;5039109;28;20061;-86
2022/06/30 13:31:05;;;;;;;;;;;;;;;;;;5055238;28;19917;-85
2022/06/30 13:33:33;;;;;;;;;;;;;;;;;;5055008;28;20631;-87
2022/06/30 13:35:58;;;;;;;;;;;;;;;;;;5020889;28;19916;-86
2022/06/30 13:38:24;;;;;;;;;;;;;;;;;;5054919;28;20342;-88
2022/06/30 13:40:49;;;;;;;;;;;;;;;;;;5054900;28;19999;-84
2022/06/30 13:43:15;;;;;;;;;;;;;;;;;;5054490;28;19971;-87
2022/06/30 13:45:41;;;;;;;;;;;;;;;;;;5056124;28;19923;-86
2022/06/30 13:48:07;;;;;;;;;;;;;;;;;;5052611;28;19940;-85
2022/06/30 13:50:32;;;;;;;;;;;;;;;;;;5057545;28;19917;-85
2022/06/30 13:52:58;;;;;;;;;;;;;;;;;;5054847;28;19917;-87
2022/06/30 13:55:23;;;;;;;;;;;;;;;;;;5054651;28;20326;-86
2022/06/30 13:57:48;;;;;;;;;;;;;;;;;;5054739;28;19917;-87
2022/06/30 14:00:14;;;;;;;;;;;;;;;;;;5054474;28;19917;-85
2022/06/30 14:02:39;;;;;;;;;;;;;;;;;;5036582;28;19948;-86
2022/06/30 14:05:05;;;;;;;;;;;;;;;;;;5054673;28;19916;-86
2022/06/30 14:07:30;;;;;;;;;;;;;;;;;;5032781;28;19998;-87
2022/06/30 14:09:56;;;;;;;;;;;;;;;;;;5064976;28;20321;-86
2022/06/30 14:12:21;;;;;;;;;;;;;;;;;;5058965;28;19917;-86
2022/06/30 14:14:47;;;;;;;;;;;;;;;;;;5058879;28;20389;-86
2022/06/30 14:17:12;;;;;;;;;;;;;;;;;;5059034;28;20341;-86
2022/06/30 14:19:37;;;;;;;;;;;;;;;;;;5058955;28;19917;-86
2022/06/30 14:22:03;;;;;;;;;;;;;;;;;;5058680;28;19917;-86
2022/06/30 14:24:30;;;;;;;;;;;;;;;;;;5040552;28;19917;-85
2022/06/30 14:26:55;;;;;;;;;;;;;;;;;;5058379;28;19917;-87
2022/06/30 14:29:21;;;;;;;;;;;;;;;;;;5074185;28;19984;-85
2022/06/30 14:31:47;;;;;;;;;;;;;;;;;;5060962;28;20275;-87
2022/06/30 14:34:12;;;;;;;;;;;;;;;;;;5058735;28;19946;-85
2022/06/30 14:36:38;;;;;;;;;;;;;;;;;;5058403;28;19924;-85
2022/06/30 14:39:03;;;;;;;;;;;;;;;;;;5059138;28;20003;-87
2022/06/30 14:44:12;;;;;;;;;;;;;;;;;;5058843;28;19967;-86
2022/06/30 14:46:38;;;;;;;;;;;;;;;;;;5058533;28;19916;-85
2022/06/30 14:49:04;;;;;;;;;;;;;;;;;;5036340;28;19909;-84
2022/06/30 14:51:29;;;;;;;;;;;;;;;;;;5073561;28;20281;-86
2022/06/30 14:53:55;;;;;;;;;;;;;;;;;;5056031;28;20330;-85
2022/06/30 14:56:20;;;;;;;;;;;;;;;;;;5065269;28;19959;-88
2022/06/30 14:58:45;;;;;;;;;;;;;;;;;;5058965;28;20446;-88
2022/06/30 15:01:10;;;;;;;;;;;;;;;;;;5058067;28;19917;-85
2022/06/30 15:03:36;;;;;;;;;;;;;;;;;;5040007;28;19948;-86
2022/06/30 15:06:08;;;;;;;;;;;;;;;;;;5057874;28;19975;-87
2022/06/30 15:08:34;;;;;;;;;;;;;;;;;;5068783;28;19905;-89
2022/06/30 15:10:59;;;;;;;;;;;;;;;;;;5042522;28;19969;-86
2022/06/30 15:13:24;;;;;;;;;;;;;;;;;;5057779;28;20425;-86
2022/06/30 15:15:50;;;;;;;;;;;;;;;;;;5057949;28;19963;-84
2022/06/30 15:18:16;;;;;;;;;;;;;;;;;;5056737;28;20266;-86
2022/06/30 15:20:41;;;;;;;;;;;;;;;;;;5057554;28;19917;-84
2022/06/30 15:25:50;;;;;;;;;;;;;;;;;;5057280;28;19923;-84
2022/06/30 15:28:16;;;;;;;;;;;;;;;;;;5065347;28;19925;-84
2022/06/30 15:30:41;;;;;;;;;;;;;;;;;;5063991;28;19916;-85
2022/06/30 15:33:07;;;;;;;;;;;;;;;;;;5057077;28;20030;-86
2022/06/30 15:35:32;;;;;;;;;;;;;;;;;;5057378;28;19978;-85
2022/06/30 15:37:58;;;;;;;;;;;;;;;;;;5057234;28;19921;-86
2022/06/30 15:40:23;;;;;;;;;;;;;;;;;;5057016;28;19955;-87
2022/06/30 15:42:48;;;;;;;;;;;;;;;;;;5039090;28;19928;-85
2022/06/30 15:45:19;;;;;;;;;;;;;;;;;;5056933;28;19917;-86
2022/06/30 15:47:44;;;;;;;;;;;;;;;;;;5057536;28;19921;-84
2022/06/30 15:50:09;;;;;;;;;;;;;;;;;;5073254;28;20270;-84
2022/06/30 15:52:35;;;;;;;;;;;;;;;;;;5058107;28;20336;-87
2022/06/30 15:55:00;;;;;;;;;;;;;;;;;;5039026;28;20246;-87
2022/06/30 15:57:25;;;;;;;;;;;;;;;;;;5038837;28;19913;-87
2022/06/30 15:59:51;;;;;;;;;;;;;;;;;;5056638;28;20251;-85
2022/06/30 16:02:17;;;;;;;;;;;;;;;;;;5056144;28;19971;-84
2022/06/30 16:04:43;;;;;;;;;;;;;;;;;;5022487;28;19924;-86
2022/06/30 16:07:08;;;;;;;;;;;;;;;;;;5038477;28;19917;-85
2022/06/30 16:09:33;;;;;;;;;;;;;;;;;;5065704;28;19904;-84
2022/06/30 16:11:59;;;;;;;;;;;;;;;;;;5063118;28;20007;-84
2022/06/30 16:14:25;;;;;;;;;;;;;;;;;;5056195;28;19918;-84
2022/06/30 16:16:51;;;;;;;;;;;;;;;;;;5056292;28;20055;-85
2022/06/30 16:19:16;;;;;;;;;;;;;;;;;;5022277;28;20006;-84
2022/06/30 16:21:42;;;;;;;;;;;;;;;;;;5038879;28;19971;-84
2022/06/30 16:24:07;;;;;;;;;;;;;;;;;;5056127;28;19945;-84
2022/06/30 16:26:33;;;;;;;;;;;;;;;;;;5056374;28;19917;-86
2022/06/30 16:28:58;;;;;;;;;;;;;;;;;;5055305;28;20342;-83
2022/06/30 16:31:24;;;;;;;;;;;;;;;;;;5050971;28;19924;-83
2022/06/30 16:33:50;;;;;;;;;;;;;;;;;;5056034;28;19948;-84
2022/06/30 16:36:17;;;;;;;;;;;;;;;;;;5056203;28;19979;-86
2022/06/30 16:38:43;;;;;;;;;;;;;;;;;;5021967;28;20311;-85
2022/06/30 16:41:08;;;;;;;;;;;;;;;;;;5055658;28;19974;-85
2022/06/30 16:43:36;;;;;;;;;;;;;;;;;;5056040;28;20398;-84
2022/06/30 16:46:01;;;;;;;;;;;;;;;;;;5038213;28;20276;-84
2022/06/30 16:48:27;;;;;;;;;;;;;;;;;;5055348;28;19917;-83
2022/06/30 16:50:52;;;;;;;;;;;;;;;;;;5063335;28;19921;-85
2022/06/30 16:53:18;;;;;;;;;;;;;;;;;;5064822;28;19927;-83
2022/06/30 16:55:43;;;;;;;;;;;;;;;;;;5021396;28;20003;-85
2022/06/30 16:58:09;;;;;;;;;;;;;;;;;;5055196;28;20003;-83
2022/06/30 17:00:40;;;;;;;;;;;;;;;;;;5021229;28;19974;-86
2022/06/30 17:03:06;;;;;;;;;;;;;;;;;;5037907;28;19917;-85
2022/06/30 17:05:31;;;;;;;;;;;;;;;;;;5037705;28;19923;-85
2022/06/30 17:07:56;;;;;;;;;;;;;;;;;;5055740;28;19956;-85
2022/06/30 17:10:22;;;;;;;;;;;;;;;;;;5021118;28;20317;-85
2022/06/30 17:12:47;;;;;;;;;;;;;;;;;;5068521;28;19921;-85
2022/06/30 17:15:12;;;;;;;;;;;;;;;;;;5056068;28;19917;-84
2022/06/30 17:17:40;;;;;;;;;;;;;;;;;;5054734;28;20210;-84
2022/06/30 17:20:05;;;;;;;;;;;;;;;;;;5054890;28;19956;-84
2022/06/30 17:22:31;;;;;;;;;;;;;;;;;;5037304;28;19923;-85
2022/06/30 17:24:56;;;;;;;;;;;;;;;;;;5054494;28;20011;-86
2022/06/30 17:27:21;;;;;;;;;;;;;;;;;;5054701;28;19916;-83
2022/06/30 17:29:47;;;;;;;;;;;;;;;;;;5036595;28;19924;-84
2022/06/30 17:32:12;;;;;;;;;;;;;;;;;;5043426;28;19932;-84
2022/06/30 17:34:37;;;;;;;;;;;;;;;;;;5062862;28;19921;-84
2022/06/30 17:37:03;;;;;;;;;;;;;;;;;;5055012;28;19924;-85
2022/06/30 17:39:29;;;;;;;;;;;;;;;;;;5054986;28;19917;-84
2022/06/30 17:41:54;;;;;;;;;;;;;;;;;;5054685;28;19943;-84
2022/06/30 17:44:20;;;;;;;;;;;;;;;;;;5036788;28;20006;-86
2022/06/30 17:46:45;;;;;;;;;;;;;;;;;;5054977;28;20413;-86
2022/06/30 17:49:12;;;;;;;;;;;;;;;;;;5020913;28;20250;-86
2022/06/30 17:51:37;;;;;;;;;;;;;;;;;;5054557;28;19999;-86
2022/06/30 17:54:03;;;;;;;;;;;;;;;;;;5069836;28;19944;-86
2022/06/30 17:56:28;;;;;;;;;;;;;;;;;;5057269;28;20356;-86
2022/06/30 17:58:53;;;;;;;;;;;;;;;;;;5054406;28;19920;-86
2022/06/30 18:01:19;;;;;;;;;;;;;;;;;;5036733;28;19923;-85
2022/06/30 18:03:45;;;;;;;;;;;;;;;;;;5054608;28;19928;-85
2022/06/30 18:11:14;;;;;;;;;;;;;;;;;;5054462;28;19974;-85